createdAt,value
2019-01-20T00:04:46.288Z,24.23
2019-01-20T00:09:53.133Z,26.10
2019-01-20T00:15:00.249Z,30.25
2019-01-20T00:20:07.724Z,26.62
2019-01-20T00:25:14.516Z,23.05
2019-01-20T00:30:21.189Z,29.80
2019-01-20T00:35:27.720Z,19.80
2019-01-20T00:40:34.314Z,21.50
2019-01-20T00:45:41.527Z,19.95
2019-01-20T00:50:48.838Z,45.75
2019-01-20T00:55:55.558Z,17.95
2019-01-20T01:01:02.153Z,26.05
2019-01-20T01:06:09.326Z,19.73
2019-01-20T01:11:16.344Z,18.85
2019-01-20T01:16:23.114Z,21.75
2019-01-20T01:21:29.753Z,29.42
2019-01-20T01:26:36.911Z,27.73
2019-01-20T01:31:43.802Z,22.85
2019-01-20T01:36:50.437Z,26.23
2019-01-20T01:41:57.344Z,20.72
2019-01-20T01:47:03.976Z,16.97
2019-01-20T01:52:10.717Z,34.10
2019-01-20T01:57:17.887Z,19.50
2019-01-20T02:02:24.612Z,23.70
2019-01-20T02:07:31.098Z,20.88
2019-01-20T02:12:37.857Z,23.83
2019-01-20T02:17:44.723Z,24.00
2019-01-20T02:22:51.729Z,34.03
2019-01-20T02:27:58.772Z,25.37
2019-01-20T02:33:05.337Z,30.35
2019-01-20T02:38:12.120Z,32.00
2019-01-20T02:43:19.056Z,28.30
2019-01-20T02:48:25.722Z,42.03
2019-01-20T02:53:32.208Z,21.10
2019-01-20T02:58:39.152Z,21.00
2019-01-20T03:03:46.061Z,22.25
2019-01-20T03:08:52.909Z,22.60
2019-01-20T03:13:59.475Z,21.42
2019-01-20T03:19:06.323Z,24.87
2019-01-20T03:24:13.026Z,24.12
2019-01-20T03:29:19.813Z,24.02
2019-01-20T03:34:26.448Z,28.38
2019-01-20T03:39:33.320Z,31.65
2019-01-20T03:44:39.930Z,30.12
2019-01-20T03:49:46.987Z,26.12
2019-01-20T03:54:54.183Z,25.90
2019-01-20T04:00:00.813Z,26.48
2019-01-20T04:05:08.019Z,23.60
2019-01-20T04:10:15.192Z,30.48
2019-01-20T04:15:22.279Z,29.40
2019-01-20T04:20:29.006Z,21.62
2019-01-20T04:25:35.873Z,22.32
2019-01-20T04:30:42.573Z,22.70
2019-01-20T04:35:49.355Z,22.40
2019-01-20T04:40:56.076Z,24.02
2019-01-20T04:46:02.553Z,36.40
2019-01-20T04:51:09.664Z,24.47
2019-01-20T04:56:17.128Z,28.45
2019-01-20T05:01:24.249Z,26.10
2019-01-20T05:06:31.024Z,28.80
2019-01-20T05:11:37.639Z,22.82
2019-01-20T05:16:44.505Z,21.97
2019-01-20T05:21:51.139Z,21.70
2019-01-20T05:26:57.989Z,22.55
2019-01-20T05:32:05.097Z,22.82
2019-01-20T05:37:12.133Z,26.97
2019-01-20T05:42:19.388Z,23.02
2019-01-20T05:47:26.197Z,24.43
2019-01-20T05:52:33.068Z,27.52
2019-01-20T05:57:39.968Z,26.37
2019-01-20T06:02:46.608Z,30.60
2019-01-20T06:07:53.458Z,27.85
2019-01-20T06:13:00.081Z,24.37
2019-01-20T06:18:07.005Z,22.77
2019-01-20T06:23:13.541Z,27.95
2019-01-20T06:28:20.438Z,32.33
2019-01-20T06:33:27.045Z,27.13
2019-01-20T06:38:33.620Z,25.55
2019-01-20T06:43:40.213Z,26.62
2019-01-20T06:48:46.991Z,27.95
2019-01-20T06:53:53.668Z,23.42
2019-01-20T06:59:00.757Z,21.33
2019-01-20T07:04:07.756Z,18.85
2019-01-20T07:09:14.399Z,18.40
2019-01-20T07:14:21.240Z,17.62
2019-01-20T07:19:28.153Z,20.48
2019-01-20T07:24:34.751Z,20.97
2019-01-20T07:29:41.331Z,26.57
2019-01-20T07:34:47.926Z,28.07
2019-01-20T07:39:54.808Z,25.52
2019-01-20T07:45:01.394Z,24.90
2019-01-20T07:50:12.112Z,27.77
2019-01-20T07:55:18.849Z,22.50
2019-01-20T08:00:26.823Z,26.60
2019-01-20T08:05:33.558Z,23.85
2019-01-20T08:10:40.457Z,29.20
2019-01-20T08:15:47.236Z,21.00
2019-01-20T08:20:53.966Z,18.77
2019-01-20T08:26:00.556Z,20.32
2019-01-20T08:31:07.417Z,20.12
2019-01-20T08:36:14.399Z,19.60
2019-01-20T09:01:53.829Z,18.25
2019-01-20T09:07:00.317Z,17.55
2019-01-20T09:12:07.002Z,16.52
2019-01-20T09:27:25.104Z,34.50
2019-01-20T10:33:39.782Z,7.05
2019-01-20T11:34:43.473Z,2.30
2019-01-20T11:39:49.444Z,2.20
2019-01-20T11:44:55.417Z,2.37
2019-01-20T11:50:01.397Z,2.92
2019-01-20T11:55:09.106Z,2.70
2019-01-20T12:20:43.067Z,2.92
2019-01-20T12:30:54.248Z,2.42
2019-01-20T12:51:15.799Z,1.60
2019-01-20T13:16:42.221Z,1.70
2019-01-20T13:31:59.253Z,1.50
2019-01-20T13:37:05.688Z,1.82
2019-01-20T13:42:11.823Z,1.55
2019-01-20T13:47:17.962Z,1.55
2019-01-20T13:52:23.838Z,1.70
2019-01-20T13:57:29.801Z,1.22
2019-01-20T14:02:35.688Z,1.40
2019-01-20T14:07:42.163Z,1.00
2019-01-20T14:12:48.233Z,1.50
2019-01-20T16:19:55.171Z,0.80
2019-01-20T16:25:01.209Z,1.00
2019-01-20T16:30:08.693Z,0.75
2019-01-20T16:35:15.205Z,1.00
2019-01-20T16:40:22.448Z,1.07
2019-01-20T16:45:42.171Z,1.15
2019-01-20T16:50:48.245Z,1.30
2019-01-20T16:55:54.252Z,1.00
2019-01-20T17:01:00.155Z,0.98
2019-01-20T17:06:06.235Z,0.90
2019-01-20T17:11:12.491Z,0.88
2019-01-20T17:16:18.653Z,1.22
2019-01-20T17:21:24.790Z,1.90
2019-01-20T17:26:30.835Z,1.55
2019-01-20T17:31:36.770Z,1.57
2019-01-20T17:36:42.751Z,2.42
2019-01-20T17:41:48.929Z,1.70
2019-01-20T17:46:55.072Z,1.40
2019-01-20T17:52:01.224Z,1.40
2019-01-20T17:57:07.251Z,1.87
2019-01-20T18:02:13.333Z,2.25
2019-01-20T18:07:19.346Z,2.20
2019-01-20T18:12:25.180Z,1.92
2019-01-20T18:17:31.384Z,2.20
2019-01-20T18:22:37.640Z,1.80
2019-01-20T18:27:43.814Z,2.40
2019-01-20T18:32:49.909Z,3.10
2019-01-20T18:37:56.677Z,3.00
2019-01-20T18:43:02.549Z,2.55
2019-01-20T18:48:08.620Z,2.75
2019-01-20T18:53:14.598Z,2.52
2019-01-20T18:58:20.578Z,2.67
2019-01-20T19:03:26.452Z,3.00
2019-01-20T19:08:32.556Z,6.05
2019-01-20T19:13:38.494Z,5.95
2019-01-20T19:18:44.611Z,8.70
2019-01-20T19:23:50.893Z,7.78
2019-01-20T19:29:03.013Z,4.03
2019-01-20T20:19:50.503Z,2.80
2019-01-20T20:24:56.566Z,2.70
2019-01-20T20:35:08.217Z,4.78
2019-01-20T20:40:15.862Z,3.90
2019-01-20T20:45:23.098Z,4.03
2019-01-20T20:50:29.012Z,4.03
2019-01-20T20:55:34.974Z,5.60
2019-01-20T21:00:43.440Z,4.30
2019-01-20T21:05:49.587Z,4.90
2019-01-20T21:10:55.863Z,4.35
2019-01-20T21:16:02.184Z,5.45
2019-01-20T21:21:08.435Z,5.58
2019-01-20T21:26:14.804Z,6.35
2019-01-20T21:31:20.791Z,7.00
2019-01-20T21:36:26.860Z,7.10
2019-01-20T21:41:32.734Z,7.40
2019-01-20T21:46:45.177Z,7.58
2019-01-20T21:51:46.220Z,7.87
2019-01-20T21:56:52.079Z,8.20
2019-01-20T22:01:58.411Z,8.65
2019-01-20T22:07:04.645Z,8.10
2019-01-20T22:12:10.719Z,8.40
2019-01-20T22:17:16.680Z,8.90
2019-01-20T22:22:22.777Z,8.40
2019-01-20T22:27:28.736Z,8.93
2019-01-20T22:32:34.610Z,9.55
2019-01-20T22:37:40.988Z,14.33
2019-01-20T22:42:46.870Z,10.53
2019-01-20T22:47:52.840Z,12.80
2019-01-20T22:52:59.069Z,10.38
2019-01-20T22:58:05.195Z,12.58
2019-01-20T23:03:11.365Z,10.98
2019-01-20T23:08:17.619Z,10.15
2019-01-20T23:23:34.171Z,10.00
2019-01-20T23:28:40.069Z,10.80
2019-01-20T23:33:45.979Z,12.20
